createdAt,value
2017-06-20T00:00:40.279Z,18.61
2017-06-20T00:01:52.541Z,18.53
2017-06-20T00:03:05.134Z,18.46
2017-06-20T00:04:17.691Z,18.49
2017-06-20T00:05:30.238Z,18.49
2017-06-20T00:06:42.461Z,18.37
2017-06-20T00:07:55.021Z,18.42
2017-06-20T00:09:07.565Z,18.39
2017-06-20T00:10:19.786Z,18.45
2017-06-20T00:11:32.351Z,18.36
2017-06-20T00:12:44.281Z,18.34
2017-06-20T00:13:56.831Z,18.31
2017-06-20T00:15:09.377Z,18.27
2017-06-20T00:16:21.627Z,18.3
2017-06-20T00:17:33.869Z,18.33
2017-06-20T00:18:46.095Z,18.34
2017-06-20T00:19:58.628Z,18.42
2017-06-20T00:21:10.861Z,18.3
2017-06-20T00:22:23.697Z,18.3
2017-06-20T00:23:35.640Z,18.33
2017-06-20T00:24:48.161Z,18.3
2017-06-20T00:26:00.400Z,18.23
2017-06-20T00:27:12.952Z,18.13
2017-06-20T00:28:25.174Z,18.13
2017-06-20T00:29:37.713Z,18.18
2017-06-20T00:30:50.270Z,18.13
2017-06-20T00:32:02.816Z,18.09
2017-06-20T00:33:15.361Z,18.03
2017-06-20T00:34:27.937Z,18
2017-06-20T00:35:40.158Z,18.02
2017-06-20T00:36:52.671Z,18.02
2017-06-20T00:38:05.218Z,18.06
2017-06-20T00:39:17.763Z,18.06
2017-06-20T00:40:30.012Z,17.98
2017-06-20T00:41:42.558Z,17.94
2017-06-20T00:42:55.078Z,17.97
2017-06-20T00:44:07.599Z,18
2017-06-20T00:45:20.130Z,17.91
2017-06-20T00:46:32.400Z,17.94
2017-06-20T00:47:44.973Z,17.95
2017-06-20T00:48:57.216Z,17.91
2017-06-20T00:50:09.734Z,17.93
2017-06-20T00:51:22.254Z,17.95
2017-06-20T00:52:34.779Z,17.91
2017-06-20T00:53:47.321Z,17.87
2017-06-20T00:54:59.517Z,17.82
2017-06-20T00:56:12.038Z,17.86
2017-06-20T00:57:24.551Z,17.84
2017-06-20T00:58:36.176Z,17.86
2017-06-20T00:59:48.702Z,17.82
2017-06-20T01:01:00.913Z,17.8
2017-06-20T01:02:12.852Z,17.76
2017-06-20T01:03:25.405Z,17.8
2017-06-20T01:04:37.627Z,17.72
2017-06-20T01:05:50.106Z,17.71
2017-06-20T01:07:02.356Z,17.69
2017-06-20T01:08:14.872Z,17.65
2017-06-20T01:09:27.389Z,17.63
2017-06-20T01:10:39.617Z,17.6
2017-06-20T01:11:52.156Z,17.66
2017-06-20T01:13:04.072Z,17.56
2017-06-20T01:14:16.022Z,17.6
2017-06-20T01:15:28.550Z,17.65
2017-06-20T01:16:41.072Z,17.6
2017-06-20T01:17:53.595Z,17.53
2017-06-20T01:19:05.557Z,17.52
2017-06-20T01:20:18.100Z,17.52
2017-06-20T01:21:30.652Z,17.53
2017-06-20T01:22:42.877Z,17.59
2017-06-20T01:23:55.419Z,17.52
2017-06-20T01:25:07.693Z,17.44
2017-06-20T01:26:19.636Z,17.5
2017-06-20T01:27:32.137Z,17.44
2017-06-20T01:28:44.370Z,17.38
2017-06-20T01:29:56.920Z,17.41
2017-06-20T01:31:09.453Z,17.44
2017-06-20T01:32:21.989Z,17.46
2017-06-20T01:33:33.932Z,17.46
2017-06-20T01:34:46.467Z,17.38
2017-06-20T01:35:59.006Z,17.38
2017-06-20T01:37:11.549Z,17.39
2017-06-20T01:38:24.391Z,17.37
2017-06-20T01:39:36.611Z,17.37
2017-06-20T01:40:49.157Z,17.35
2017-06-20T01:42:01.711Z,17.34
2017-06-20T01:43:13.654Z,17.32
2017-06-20T01:44:26.203Z,17.37
2017-06-20T01:45:38.723Z,17.31
2017-06-20T01:46:50.964Z,17.34
2017-06-20T01:48:03.183Z,17.32
2017-06-20T01:49:15.682Z,17.28
2017-06-20T01:50:28.225Z,17.3
2017-06-20T01:51:40.755Z,17.31
2017-06-20T01:52:52.996Z,17.32
2017-06-20T01:54:05.517Z,17.24
2017-06-20T01:55:18.042Z,17.31
2017-06-20T01:56:30.584Z,17.3
2017-06-20T01:57:43.122Z,17.35
2017-06-20T01:58:55.372Z,17.27
2017-06-20T02:00:07.914Z,17.24
2017-06-20T02:01:20.463Z,17.24
2017-06-20T02:02:32.717Z,17.28
2017-06-20T02:03:44.968Z,17.24
2017-06-20T02:04:57.176Z,17.23
2017-06-20T02:06:09.676Z,17.2
2017-06-20T02:07:21.897Z,17.22
2017-06-20T02:08:34.117Z,17.17
2017-06-20T02:09:46.346Z,17.23
2017-06-20T02:10:58.588Z,17.17
2017-06-20T02:12:10.235Z,17.16
2017-06-20T02:13:22.772Z,17.16
2017-06-20T02:14:34.997Z,17.09
2017-06-20T02:15:47.519Z,17.1
2017-06-20T02:17:00.042Z,17.1
2017-06-20T02:18:12.576Z,17.14
2017-06-20T02:19:25.106Z,17.04
2017-06-20T02:20:37.331Z,17.01
2017-06-20T02:21:49.854Z,17.05
2017-06-20T02:23:02.365Z,17.01
2017-06-20T02:24:14.886Z,17.01
2017-06-20T02:25:27.436Z,17.01
2017-06-20T02:26:39.082Z,17.01
2017-06-20T02:27:51.319Z,17.02
2017-06-20T02:29:03.265Z,16.94
2017-06-20T02:30:15.815Z,16.92
2017-06-20T02:31:28.390Z,16.92
2017-06-20T02:32:40.604Z,16.87
2017-06-20T02:33:53.153Z,16.86
2017-06-20T02:35:05.384Z,16.83
2017-06-20T02:36:17.925Z,16.89
2017-06-20T02:37:30.445Z,16.83
2017-06-20T02:38:42.666Z,16.82
2017-06-20T02:39:55.179Z,16.8
2017-06-20T02:41:07.707Z,16.77
2017-06-20T02:42:20.227Z,16.79
2017-06-20T02:43:32.770Z,16.76
2017-06-20T02:44:45.291Z,16.76
2017-06-20T02:45:57.841Z,16.66
2017-06-20T02:47:09.755Z,16.72
2017-06-20T02:48:22.013Z,16.68
2017-06-20T02:49:34.534Z,16.58
2017-06-20T02:50:47.051Z,16.62
2017-06-20T02:51:59.566Z,16.66
2017-06-20T02:53:12.096Z,16.65
2017-06-20T02:54:24.633Z,16.62
2017-06-20T02:55:37.161Z,16.58
2017-06-20T02:56:49.700Z,16.58
2017-06-20T02:58:02.207Z,16.57
2017-06-20T02:59:14.742Z,16.55
2017-06-20T03:00:27.292Z,16.61
2017-06-20T03:01:39.513Z,16.58
2017-06-20T03:02:51.733Z,16.54
2017-06-20T03:04:04.275Z,16.54
2017-06-20T03:05:16.804Z,16.57
2017-06-20T03:06:29.350Z,16.49
2017-06-20T03:07:41.595Z,16.51
2017-06-20T03:08:53.823Z,16.51
2017-06-20T03:10:06.359Z,16.55
2017-06-20T03:11:18.855Z,16.46
2017-06-20T03:12:31.372Z,16.51
2017-06-20T03:13:43.918Z,16.49
2017-06-20T03:14:56.421Z,16.51
2017-06-20T03:16:08.357Z,16.44
2017-06-20T03:17:20.860Z,16.5
2017-06-20T03:18:33.380Z,16.46
2017-06-20T03:19:45.929Z,16.44
2017-06-20T03:20:58.473Z,16.46
2017-06-20T03:22:10.668Z,16.46
2017-06-20T03:23:23.193Z,16.46
2017-06-20T03:24:35.419Z,16.55
2017-06-20T03:25:47.998Z,16.49
2017-06-20T03:27:00.520Z,16.54
2017-06-20T03:28:13.041Z,16.55
2017-06-20T03:29:24.990Z,16.46
2017-06-20T03:30:37.511Z,16.43
2017-06-20T03:31:50.028Z,16.47
2017-06-20T03:33:02.557Z,16.57
2017-06-20T03:34:14.780Z,16.64
2017-06-20T03:35:27.323Z,16.51
2017-06-20T03:36:39.220Z,16.51
2017-06-20T03:37:52.044Z,16.49
2017-06-20T03:39:04.286Z,16.51
2017-06-20T03:40:16.825Z,16.58
2017-06-20T03:41:29.071Z,16.57
2017-06-20T03:42:41.617Z,16.58
2017-06-20T03:43:54.166Z,16.62
2017-06-20T03:45:05.792Z,16.58
2017-06-20T03:46:18.304Z,16.65
2017-06-20T03:47:30.535Z,16.66
2017-06-20T03:48:43.071Z,16.66
2017-06-20T03:49:55.600Z,16.61
2017-06-20T03:51:07.841Z,16.73
2017-06-20T03:52:20.363Z,16.65
2017-06-20T03:53:32.590Z,16.66
2017-06-20T03:54:45.136Z,16.72
2017-06-20T03:55:57.655Z,16.74
2017-06-20T03:57:10.176Z,16.77
2017-06-20T03:58:22.721Z,16.8
2017-06-20T03:59:35.509Z,16.82
2017-06-20T04:00:47.741Z,16.76
2017-06-20T04:02:00.275Z,16.89
2017-06-20T04:03:12.850Z,16.86
2017-06-20T04:04:25.367Z,16.91
2017-06-20T04:05:37.596Z,16.87
2017-06-20T04:06:49.821Z,16.94
2017-06-20T04:08:02.058Z,16.98
2017-06-20T04:09:14.601Z,17.05
2017-06-20T04:10:27.432Z,17.02
2017-06-20T04:11:39.669Z,17.01
2017-06-20T04:12:51.899Z,17.01
2017-06-20T04:14:04.438Z,17.07
2017-06-20T04:15:16.388Z,17.09
2017-06-20T04:16:28.928Z,17.09
2017-06-20T04:17:41.483Z,17.14
2017-06-20T04:18:54.020Z,17.14
2017-06-20T04:20:05.639Z,17.27
2017-06-20T04:21:18.146Z,17.28
2017-06-20T04:22:30.690Z,17.27
2017-06-20T04:23:43.235Z,17.3
2017-06-20T04:24:55.451Z,17.35
2017-06-20T04:26:07.730Z,17.44
2017-06-20T04:27:20.268Z,17.44
2017-06-20T04:28:32.802Z,17.46
2017-06-20T04:29:45.340Z,17.57
2017-06-20T04:30:57.265Z,17.49
2017-06-20T04:32:09.507Z,17.59
2017-06-20T04:33:21.747Z,17.59
2017-06-20T04:34:34.001Z,17.63
2017-06-20T04:35:46.226Z,17.65
2017-06-20T04:36:58.741Z,17.72
2017-06-20T04:38:11.289Z,17.79
2017-06-20T04:39:23.550Z,17.8
2017-06-20T04:40:36.063Z,17.8
2017-06-20T04:41:48.642Z,17.9
2017-06-20T04:43:00.566Z,17.91
2017-06-20T04:44:13.062Z,18.05
2017-06-20T04:45:25.282Z,18.03
2017-06-20T04:46:37.811Z,18.06
2017-06-20T04:47:50.349Z,18.15
2017-06-20T04:49:02.900Z,18.18
2017-06-20T04:50:15.470Z,18.3
2017-06-20T04:51:27.993Z,18.31
2017-06-20T04:52:39.607Z,18.27
2017-06-20T04:53:51.853Z,18.36
2017-06-20T04:55:04.407Z,18.36
2017-06-20T04:56:16.350Z,18.42
2017-06-20T04:57:28.871Z,18.52
2017-06-20T04:58:41.387Z,18.57
2017-06-20T04:59:53.606Z,18.58
2017-06-20T05:01:06.140Z,18.64
2017-06-20T05:02:18.671Z,18.64
2017-06-20T05:03:30.578Z,18.81
2017-06-20T05:04:43.089Z,18.78
2017-06-20T05:05:55.345Z,18.82
2017-06-20T05:07:07.891Z,18.86
2017-06-20T05:08:20.466Z,18.97
2017-06-20T05:09:32.723Z,18.96
2017-06-20T05:10:44.969Z,19.08
2017-06-20T05:11:57.502Z,19.15
2017-06-20T05:13:10.061Z,19.27
2017-06-20T05:14:22.588Z,19.39
2017-06-20T05:15:34.509Z,19.44
2017-06-20T05:16:46.726Z,19.59
2017-06-20T05:17:59.294Z,19.66
2017-06-20T05:19:11.522Z,19.72
2017-06-20T05:20:24.086Z,19.93
2017-06-20T05:21:36.335Z,20.17
2017-06-20T05:22:48.551Z,20.33
2017-06-20T05:24:01.059Z,20.5
2017-06-20T05:25:12.706Z,20.6
2017-06-20T05:26:25.241Z,20.82
2017-06-20T05:27:37.497Z,21.05
2017-06-20T05:28:50.057Z,21.23
2017-06-20T05:30:02.288Z,21.51
2017-06-20T05:31:14.831Z,21.68
2017-06-20T05:32:27.380Z,21.88
2017-06-20T05:33:39.602Z,22.1
2017-06-20T05:34:51.848Z,22.34
2017-06-20T05:36:04.383Z,22.44
2017-06-20T05:37:16.914Z,22.59
2017-06-20T05:38:29.474Z,22.8
2017-06-20T05:39:42.020Z,22.83
2017-06-20T05:40:54.273Z,22.95
2017-06-20T05:42:06.223Z,23.04
2017-06-20T05:43:18.437Z,23.2
2017-06-20T05:44:30.340Z,23.26
2017-06-20T05:45:42.328Z,23.37
2017-06-20T05:46:54.837Z,23.39
2017-06-20T05:48:07.391Z,23.55
2017-06-20T05:49:19.943Z,23.56
2017-06-20T05:50:31.886Z,23.69
2017-06-20T05:51:44.420Z,23.71
2017-06-20T05:52:56.975Z,23.84
2017-06-20T05:54:08.907Z,23.89
2017-06-20T05:55:21.142Z,23.92
2017-06-20T05:56:32.775Z,23.99
2017-06-20T05:57:45.334Z,23.96
2017-06-20T05:58:58.104Z,24.07
2017-06-20T06:00:10.636Z,24.09
2017-06-20T06:01:23.183Z,24.16
2017-06-20T06:02:34.842Z,24.14
2017-06-20T06:03:47.374Z,24.21
2017-06-20T06:04:59.913Z,24.29
2017-06-20T06:06:12.455Z,24.34
2017-06-20T06:07:25.011Z,24.4
2017-06-20T06:08:37.222Z,24.53
2017-06-20T06:09:49.746Z,24.48
2017-06-20T06:11:02.274Z,24.47
2017-06-20T06:12:14.214Z,24.61
2017-06-20T06:13:26.763Z,24.68
2017-06-20T06:14:39.012Z,24.75
2017-06-20T06:15:51.248Z,24.74
2017-06-20T06:17:03.479Z,24.82
2017-06-20T06:18:15.743Z,24.82
2017-06-20T06:19:27.687Z,24.88
2017-06-20T06:20:40.155Z,24.93
2017-06-20T06:21:52.704Z,25.01
2017-06-20T06:23:04.951Z,25.19
2017-06-20T06:24:17.502Z,25.31
2017-06-20T06:25:30.049Z,25.54
2017-06-20T06:26:42.015Z,25.81
2017-06-20T06:27:54.567Z,26.06
2017-06-20T06:29:06.785Z,26.22
2017-06-20T06:30:19.027Z,26.52
2017-06-20T06:31:30.980Z,26.73
2017-06-20T06:32:43.544Z,26.97
2017-06-20T06:33:56.086Z,27.2
2017-06-20T06:35:08.368Z,27.47
2017-06-20T06:36:20.915Z,27.66
2017-06-20T06:37:32.875Z,27.93
2017-06-20T06:38:45.128Z,28.09
2017-06-20T06:39:57.679Z,28.43
2017-06-20T06:41:09.644Z,28.68
2017-06-20T06:42:21.886Z,28.86
2017-06-20T06:43:34.136Z,29.24
2017-06-20T06:44:46.677Z,29.31
2017-06-20T06:45:58.933Z,29.67
2017-06-20T06:47:10.592Z,29.87
2017-06-20T06:48:22.845Z,30.2
2017-06-20T06:49:34.492Z,30.39
2017-06-20T06:50:47.029Z,30.63
2017-06-20T06:51:59.604Z,30.93
2017-06-20T06:53:11.829Z,31.14
2017-06-20T06:54:24.350Z,31.33
2017-06-20T06:55:36.917Z,31.39
2017-06-20T06:56:49.175Z,31.66
2017-06-20T06:58:01.718Z,31.81
2017-06-20T06:59:14.257Z,32.05
2017-06-20T07:00:26.503Z,32.23
2017-06-20T07:01:38.468Z,32.3
2017-06-20T07:02:51.017Z,32.42
2017-06-20T07:04:03.835Z,32.56
2017-06-20T07:05:16.408Z,32.61
2017-06-20T07:06:28.654Z,32.83
2017-06-20T07:07:40.909Z,32.98
2017-06-20T07:08:53.479Z,33.15
2017-06-20T07:10:05.715Z,33.36
2017-06-20T07:11:18.292Z,33.44
2017-06-20T07:12:30.238Z,33.61
2017-06-20T07:13:42.810Z,33.7
2017-06-20T07:14:55.330Z,33.84
2017-06-20T07:16:07.577Z,33.88
2017-06-20T07:17:20.100Z,34.09
2017-06-20T07:18:32.045Z,34.21
2017-06-20T07:19:44.590Z,34.44
2017-06-20T07:20:57.188Z,34.59
2017-06-20T07:22:09.432Z,34.69
2017-06-20T07:23:21.702Z,34.86
2017-06-20T07:24:34.273Z,35.1
2017-06-20T07:25:46.498Z,35.15
2017-06-20T07:26:58.761Z,35.3
2017-06-20T07:28:11.312Z,35.41
2017-06-20T07:29:23.881Z,35.42
2017-06-20T07:30:36.145Z,35.44
2017-06-20T07:31:48.727Z,35.47
2017-06-20T07:33:01.069Z,35.35
2017-06-20T07:34:13.020Z,35.45
2017-06-20T07:35:25.564Z,35.47
2017-06-20T07:36:38.134Z,35.47
2017-06-20T07:37:50.403Z,35.42
2017-06-20T07:39:02.951Z,35.32
2017-06-20T07:40:14.922Z,35.35
2017-06-20T07:41:27.483Z,35.45
2017-06-20T07:42:40.041Z,35.47
2017-06-20T07:43:52.304Z,35.56
2017-06-20T07:45:04.857Z,35.59
2017-06-20T07:46:17.095Z,35.68
2017-06-20T07:47:29.337Z,35.75
2017-06-20T07:48:41.916Z,35.72
2017-06-20T07:49:54.165Z,35.6
2017-06-20T07:51:06.429Z,35.69
2017-06-20T07:52:18.707Z,35.63
2017-06-20T07:53:31.270Z,35.86
2017-06-20T07:54:42.941Z,36.01
2017-06-20T07:55:55.512Z,36.14
2017-06-20T07:57:08.082Z,36.01
2017-06-20T07:58:20.902Z,36.05
2017-06-20T07:59:32.883Z,36.11
2017-06-20T08:00:45.442Z,36.24
2017-06-20T08:01:57.401Z,36.2
2017-06-20T08:03:09.963Z,36.26
2017-06-20T08:04:22.542Z,36.22
2017-06-20T08:05:35.126Z,36.18
2017-06-20T08:06:47.397Z,35.93
2017-06-20T08:07:59.951Z,35.97
2017-06-20T08:09:11.914Z,36.03
2017-06-20T08:10:24.188Z,35.93
2017-06-20T08:11:36.440Z,35.79
2017-06-20T08:12:49.021Z,35.79
2017-06-20T08:14:01.605Z,35.82
2017-06-20T08:15:13.869Z,35.91
2017-06-20T08:16:26.424Z,35.82
2017-06-20T08:17:38.392Z,35.86
2017-06-20T08:18:50.957Z,35.71
2017-06-20T08:20:02.912Z,35.69
2017-06-20T08:21:14.876Z,35.68
2017-06-20T08:22:27.477Z,35.72
2017-06-20T08:23:40.015Z,35.75
2017-06-20T08:24:52.265Z,35.84
2017-06-20T08:26:04.807Z,36.03
2017-06-20T08:27:17.381Z,36.03
2017-06-20T08:28:29.610Z,36.05
2017-06-20T08:29:41.553Z,36.03
2017-06-20T08:30:54.096Z,36.25
2017-06-20T08:32:06.373Z,36.43
2017-06-20T08:33:18.935Z,36.45
2017-06-20T08:34:31.511Z,36.45
2017-06-20T08:35:44.078Z,36.6
2017-06-20T08:36:56.653Z,36.75
2017-06-20T08:38:08.621Z,36.87
2017-06-20T08:39:20.874Z,37.03
2017-06-20T08:40:32.832Z,36.57
2017-06-20T08:41:44.206Z,36.41
2017-06-20T08:42:56.153Z,36.72
2017-06-20T08:44:08.425Z,36.73
2017-06-20T08:45:20.699Z,36.69
2017-06-20T08:46:32.963Z,36.76
2017-06-20T08:47:45.223Z,36.84
2017-06-20T08:48:57.483Z,36.84
2017-06-20T08:50:09.448Z,36.91
2017-06-20T08:51:21.710Z,36.82
2017-06-20T08:52:33.717Z,36.88
2017-06-20T08:53:46.273Z,36.78
2017-06-20T08:54:57.620Z,36.66
2017-06-20T08:56:09.883Z,36.8
2017-06-20T08:57:22.434Z,36.7
2017-06-20T08:58:35.001Z,36.87
2017-06-20T08:59:46.942Z,36.72
2017-06-20T09:00:59.472Z,36.78
2017-06-20T09:02:11.720Z,36.82
2017-06-20T09:03:23.980Z,36.87
2017-06-20T09:04:36.552Z,36.85
2017-06-20T09:05:48.801Z,37.01
2017-06-20T09:07:00.768Z,37.07
2017-06-20T09:08:12.768Z,37.29
2017-06-20T09:09:25.338Z,37.36
2017-06-20T09:10:37.892Z,37.36
2017-06-20T09:11:50.159Z,37.4
2017-06-20T09:13:02.686Z,37.56
2017-06-20T09:14:15.497Z,37.54
2017-06-20T09:15:27.449Z,37.45
2017-06-20T09:16:39.697Z,37.18
2017-06-20T09:17:51.660Z,37.19
2017-06-20T09:19:03.906Z,37.04
2017-06-20T09:20:16.182Z,36.7
2017-06-20T09:21:28.722Z,36.7
2017-06-20T09:22:40.677Z,36.62
2017-06-20T09:23:52.660Z,36.57
2017-06-20T09:25:04.607Z,36.57
2017-06-20T09:26:17.178Z,36.69
2017-06-20T09:27:29.149Z,36.7
2017-06-20T09:28:41.423Z,36.72
2017-06-20T09:29:53.694Z,36.82
2017-06-20T09:31:05.638Z,36.92
2017-06-20T09:32:18.215Z,36.97
2017-06-20T09:33:30.164Z,36.99
2017-06-20T09:34:42.728Z,37.14
2017-06-20T09:35:54.998Z,37.19
2017-06-20T09:37:07.272Z,37.34
2017-06-20T09:38:19.514Z,37.37
2017-06-20T09:39:30.883Z,37.41
2017-06-20T09:40:43.138Z,37.6
2017-06-20T09:41:55.705Z,37.47
2017-06-20T09:43:07.658Z,37.45
2017-06-20T09:44:20.227Z,37.66
2017-06-20T09:45:32.475Z,37.6
2017-06-20T09:46:43.861Z,37.71
2017-06-20T09:47:56.116Z,37.73
2017-06-20T09:49:08.676Z,37.91
2017-06-20T09:50:20.685Z,37.73
2017-06-20T09:51:32.645Z,37.75
2017-06-20T09:52:44.899Z,37.85
2017-06-20T09:53:56.568Z,37.9
2017-06-20T09:55:09.130Z,38
2017-06-20T09:56:21.387Z,37.94
2017-06-20T09:57:34.211Z,37.8
2017-06-20T09:58:46.454Z,37.78
2017-06-20T09:59:58.417Z,37.57
2017-06-20T10:01:11.013Z,37.43
2017-06-20T10:02:23.266Z,37.4
2017-06-20T10:03:35.837Z,37.25
2017-06-20T10:04:48.423Z,37.18
2017-06-20T10:06:00.677Z,37.34
2017-06-20T10:07:12.914Z,37.36
2017-06-20T10:08:25.437Z,37.37
2017-06-20T10:09:37.389Z,37.31
2017-06-20T10:10:49.956Z,37.23
2017-06-20T10:12:02.505Z,37
2017-06-20T10:13:14.773Z,36.87
2017-06-20T10:14:27.340Z,36.75
2017-06-20T10:15:39.895Z,36.75
2017-06-20T10:16:52.143Z,36.81
2017-06-20T10:18:04.405Z,36.81
2017-06-20T10:19:16.947Z,36.96
2017-06-20T10:20:28.931Z,37.01
2017-06-20T10:21:41.490Z,37.14
2017-06-20T10:22:53.769Z,37.29
2017-06-20T10:24:06.332Z,37.34
2017-06-20T10:25:18.877Z,37.53
2017-06-20T10:26:31.134Z,37.67
2017-06-20T10:27:43.372Z,37.86
2017-06-20T10:28:55.630Z,37.73
2017-06-20T10:30:08.146Z,37.53
2017-06-20T10:31:20.691Z,37.28
2017-06-20T10:32:32.932Z,37.06
2017-06-20T10:33:44.887Z,36.97
2017-06-20T10:34:57.428Z,36.76
2017-06-20T10:36:09.692Z,36.59
2017-06-20T10:37:22.265Z,36.26
2017-06-20T10:38:34.844Z,36.25
2017-06-20T10:39:47.093Z,35.98
2017-06-20T10:40:59.679Z,35.86
2017-06-20T10:42:12.228Z,35.81
2017-06-20T10:43:23.892Z,35.91
2017-06-20T10:44:36.438Z,35.96
2017-06-20T10:45:48.695Z,36.03
2017-06-20T10:47:00.955Z,36.05
2017-06-20T10:48:13.529Z,36.24
2017-06-20T10:49:26.072Z,36.41
2017-06-20T10:50:38.642Z,36.53
2017-06-20T10:51:50.575Z,36.7
2017-06-20T10:53:03.135Z,36.75
2017-06-20T10:54:15.356Z,36.72
2017-06-20T10:55:27.334Z,36.87
2017-06-20T10:56:39.904Z,36.85
2017-06-20T10:57:52.467Z,36.91
2017-06-20T10:59:05.014Z,36.96
2017-06-20T11:00:17.545Z,36.97
2017-06-20T11:01:29.238Z,36.99
2017-06-20T11:02:41.779Z,37.18
2017-06-20T11:03:53.730Z,37.45
2017-06-20T11:05:05.981Z,37.56
2017-06-20T11:06:18.553Z,37.53
2017-06-20T11:07:31.137Z,37.79
2017-06-20T11:08:43.385Z,37.88
2017-06-20T11:09:55.956Z,37.92
2017-06-20T11:11:08.229Z,37.98
2017-06-20T11:12:20.502Z,38.13
2017-06-20T11:13:33.049Z,38.35
2017-06-20T11:14:45.611Z,38.5
2017-06-20T11:15:58.189Z,38.65
2017-06-20T11:17:10.764Z,38.85
2017-06-20T11:18:23.352Z,39.07
2017-06-20T11:19:35.830Z,39.07
2017-06-20T11:20:48.076Z,39.14
2017-06-20T11:22:00.665Z,39.11
2017-06-20T11:23:13.240Z,38.85
2017-06-20T11:24:25.788Z,38.81
2017-06-20T11:25:38.060Z,38.77
2017-06-20T11:26:50.327Z,38.81
2017-06-20T11:28:02.577Z,39
2017-06-20T11:29:15.161Z,38.48
2017-06-20T11:30:27.740Z,38.28
2017-06-20T11:31:40.289Z,37.98
2017-06-20T11:32:52.885Z,37.8
2017-06-20T11:34:05.124Z,37.75
2017-06-20T11:35:17.371Z,37.78
2017-06-20T11:36:29.940Z,37.57
2017-06-20T11:37:42.508Z,37.75
2017-06-20T11:38:55.079Z,37.61
2017-06-20T11:40:07.053Z,37.5
2017-06-20T11:41:19.023Z,37.18
2017-06-20T11:42:31.553Z,37.03
2017-06-20T11:43:43.817Z,36.75
2017-06-20T11:44:56.071Z,36.48
2017-06-20T11:46:08.312Z,36.24
2017-06-20T11:47:20.576Z,35.91
2017-06-20T11:48:33.183Z,35.76
2017-06-20T11:49:45.745Z,35.76
2017-06-20T11:50:58.014Z,35.81
2017-06-20T11:52:10.544Z,35.97
2017-06-20T11:53:22.784Z,36.11
2017-06-20T11:54:35.362Z,36.26
2017-06-20T11:55:47.926Z,36.48
2017-06-20T11:57:00.478Z,36.57
2017-06-20T11:58:12.776Z,36.76
2017-06-20T11:59:25.343Z,36.96
2017-06-20T12:00:37.909Z,37.11
2017-06-20T12:01:50.459Z,37.19
2017-06-20T12:03:03.022Z,37.47
2017-06-20T12:04:15.306Z,37.61
2017-06-20T12:05:27.850Z,37.75
2017-06-20T12:06:40.113Z,37.83
2017-06-20T12:07:52.060Z,37.76
2017-06-20T12:09:04.313Z,37.88
2017-06-20T12:10:16.573Z,37.91
2017-06-20T12:11:28.822Z,37.86
2017-06-20T12:12:41.364Z,37.86
2017-06-20T12:13:53.039Z,37.85
2017-06-20T12:15:05.319Z,37.88
2017-06-20T12:16:17.303Z,37.91
2017-06-20T12:17:29.856Z,38.01
2017-06-20T12:18:42.674Z,37.78
2017-06-20T12:19:54.944Z,37.63
2017-06-20T12:21:07.498Z,37.56
2017-06-20T12:22:19.761Z,37.34
2017-06-20T12:23:32.307Z,37.38
2017-06-20T12:24:44.556Z,37.58
2017-06-20T12:25:57.120Z,37.58
2017-06-20T12:27:09.669Z,37.64
2017-06-20T12:28:22.227Z,37.58
2017-06-20T12:29:34.782Z,37.71
2017-06-20T12:30:47.339Z,37.75
2017-06-20T12:31:59.584Z,37.82
2017-06-20T12:33:11.852Z,37.68
2017-06-20T12:34:23.799Z,37.53
2017-06-20T12:35:36.349Z,37.36
2017-06-20T12:36:48.608Z,37.07
2017-06-20T12:38:01.158Z,37.1
2017-06-20T12:39:13.711Z,37.04
2017-06-20T12:40:25.996Z,36.99
2017-06-20T12:41:38.542Z,37.01
2017-06-20T12:42:50.771Z,37.06
2017-06-20T12:44:03.368Z,37.4
2017-06-20T12:45:15.908Z,37.4
2017-06-20T12:46:28.428Z,37.43
2017-06-20T12:47:41.000Z,37.38
2017-06-20T12:48:53.542Z,37.6
2017-06-20T12:50:06.089Z,37.75
2017-06-20T12:51:18.060Z,38
2017-06-20T12:52:30.616Z,38.12
2017-06-20T12:53:43.188Z,38.13
2017-06-20T12:54:55.759Z,38.13
2017-06-20T12:56:08.021Z,38.31
2017-06-20T12:57:20.589Z,38.41
2017-06-20T12:58:32.843Z,38.5
2017-06-20T12:59:45.093Z,38.73
2017-06-20T13:00:57.686Z,38.85
2017-06-20T13:02:10.236Z,38.92
2017-06-20T13:03:22.806Z,39.11
2017-06-20T13:04:35.365Z,39.22
2017-06-20T13:05:47.647Z,39.32
2017-06-20T13:06:59.909Z,39.11
2017-06-20T13:08:12.459Z,39.07
2017-06-20T13:09:25.023Z,39.08
2017-06-20T13:10:37.572Z,38.91
2017-06-20T13:11:49.839Z,38.87
2017-06-20T13:13:01.814Z,38.87
2017-06-20T13:14:14.066Z,38.96
2017-06-20T13:15:26.656Z,38.96
2017-06-20T13:16:39.205Z,38.85
2017-06-20T13:17:51.148Z,38.87
2017-06-20T13:19:03.418Z,38.85
2017-06-20T13:20:15.398Z,38.56
2017-06-20T13:21:27.656Z,38.38
2017-06-20T13:22:39.931Z,38.39
2017-06-20T13:23:52.498Z,37.8
2017-06-20T13:25:05.019Z,37.8
2017-06-20T13:26:17.594Z,37.73
2017-06-20T13:27:30.161Z,37.53
2017-06-20T13:28:42.435Z,37.5
2017-06-20T13:29:54.406Z,37.41
2017-06-20T13:31:06.386Z,37.44
2017-06-20T13:32:18.952Z,37.33
2017-06-20T13:33:31.516Z,37.37
2017-06-20T13:34:43.172Z,37.41
2017-06-20T13:35:55.736Z,37.45
2017-06-20T13:37:08.007Z,37.34
2017-06-20T13:38:19.939Z,37.18
2017-06-20T13:39:32.220Z,37.14
2017-06-20T13:40:44.167Z,36.92
2017-06-20T13:41:56.744Z,36.69
2017-06-20T13:43:08.993Z,36.66
2017-06-20T13:44:21.261Z,36.55
2017-06-20T13:45:33.835Z,36.43
2017-06-20T13:46:45.804Z,36.39
2017-06-20T13:47:58.353Z,36.36
2017-06-20T13:49:10.604Z,36.2
2017-06-20T13:50:22.870Z,36.17
2017-06-20T13:51:35.140Z,36.06
2017-06-20T13:52:47.104Z,36.05
2017-06-20T13:53:59.347Z,36.2
2017-06-20T13:55:11.903Z,36.06
2017-06-20T13:56:24.150Z,36.24
2017-06-20T13:57:36.109Z,36.18
2017-06-20T13:58:48.355Z,35.96
2017-06-20T14:00:00.960Z,35.86
2017-06-20T14:01:13.497Z,35.68
2017-06-20T14:02:26.050Z,35.39
2017-06-20T14:03:38.324Z,35.25
2017-06-20T14:04:50.568Z,35.15
2017-06-20T14:06:02.842Z,35.16
2017-06-20T14:07:15.379Z,35.04
2017-06-20T14:08:27.907Z,34.85
2017-06-20T14:09:40.143Z,34.65
2017-06-20T14:10:51.797Z,34.78
2017-06-20T14:12:03.461Z,34.66
2017-06-20T14:13:16.013Z,34.35
2017-06-20T14:14:28.253Z,34.38
2017-06-20T14:15:40.806Z,34.46
2017-06-20T14:16:53.372Z,34.58
2017-06-20T14:18:05.318Z,34.59
2017-06-20T14:19:17.877Z,34.73
2017-06-20T14:20:30.457Z,34.65
2017-06-20T14:21:42.412Z,34.6
2017-06-20T14:22:54.660Z,34.65
2017-06-20T14:24:07.222Z,34.56
2017-06-20T14:25:19.798Z,34.26
2017-06-20T14:26:32.336Z,34.41
2017-06-20T14:27:44.918Z,34.25
2017-06-20T14:28:57.253Z,34.14
2017-06-20T14:30:09.811Z,34.13
2017-06-20T14:31:22.381Z,34.03
2017-06-20T14:32:34.644Z,34
2017-06-20T14:33:47.212Z,34.1
2017-06-20T14:34:59.811Z,33.94
2017-06-20T14:36:12.378Z,33.94
2017-06-20T14:37:24.626Z,33.69
2017-06-20T14:38:36.871Z,33.61
2017-06-20T14:39:49.675Z,33.54
2017-06-20T14:41:02.237Z,33.55
2017-06-20T14:42:14.497Z,33.53
2017-06-20T14:43:26.742Z,33.47
2017-06-20T14:44:39.313Z,33.33
2017-06-20T14:45:51.856Z,33.28
2017-06-20T14:47:04.117Z,32.95
2017-06-20T14:48:16.671Z,32.76
2017-06-20T14:49:28.909Z,32.71
2017-06-20T14:50:41.165Z,32.54
2017-06-20T14:51:53.432Z,32.48
2017-06-20T14:53:06.007Z,32.19
2017-06-20T14:54:18.554Z,32.2
2017-06-20T14:55:30.501Z,32.04
2017-06-20T14:56:43.061Z,32.02
2017-06-20T14:57:55.290Z,32.01
2017-06-20T14:59:07.851Z,31.82
2017-06-20T15:00:19.460Z,31.78
2017-06-20T15:01:31.996Z,31.69
2017-06-20T15:02:44.538Z,31.67
2017-06-20T15:03:57.109Z,31.54
2017-06-20T15:05:09.662Z,31.41
2017-06-20T15:06:21.611Z,31.28
2017-06-20T15:07:34.147Z,31.13
2017-06-20T15:08:46.701Z,31.11
2017-06-20T15:09:58.946Z,31.05
2017-06-20T15:11:10.890Z,30.95
2017-06-20T15:12:22.833Z,30.63
2017-06-20T15:13:35.108Z,30.49
2017-06-20T15:14:47.350Z,30.39
2017-06-20T15:15:59.894Z,30.39
2017-06-20T15:17:12.446Z,30.32
2017-06-20T15:18:24.396Z,30.27
2017-06-20T15:19:36.660Z,30.32
2017-06-20T15:20:48.910Z,30.24
2017-06-20T15:22:01.423Z,30.18
2017-06-20T15:23:13.955Z,30.16
2017-06-20T15:24:25.925Z,30.08
2017-06-20T15:25:37.868Z,30.1
2017-06-20T15:26:50.109Z,30.06
2017-06-20T15:28:01.760Z,30.1
2017-06-20T15:29:14.002Z,30.05
2017-06-20T15:30:26.548Z,30.06
2017-06-20T15:31:39.126Z,29.96
2017-06-20T15:32:51.073Z,29.9
2017-06-20T15:34:03.633Z,29.86
2017-06-20T15:35:15.878Z,29.69